sensor_id;sensor_type;location;lat;lon;timestamp;temperature;humidity
7936;DHT22;4013;49.744;8.118;2024-02-21T05:32:06;7.90;99.90
7936;DHT22;4013;49.744;8.118;2024-02-21T05:34:33;7.80;99.90
7936;DHT22;4013;49.744;8.118;2024-02-21T05:37:00;7.80;99.90
7936;DHT22;4013;49.744;8.118;2024-02-21T05:39:27;7.80;99.90
7936;DHT22;4013;49.744;8.118;2024-02-21T05:41:54;7.80;99.90
7936;DHT22;4013;49.744;8.118;2024-02-21T05:44:21;7.80;99.90
7936;DHT22;4013;49.744;8.118;2024-02-21T05:46:48;7.80;99.90
7936;DHT22;4013;49.744;8.118;2024-02-21T05:49:17;7.80;99.90
7936;DHT22;4013;49.744;8.118;2024-02-21T05:51:44;7.80;99.90
7936;DHT22;4013;49.744;8.118;2024-02-21T05:54:10;7.70;99.90
7936;DHT22;4013;49.744;8.118;2024-02-21T05:56:37;7.60;99.90
7936;DHT22;4013;49.744;8.118;2024-02-21T05:59:04;7.60;99.90
7936;DHT22;4013;49.744;8.118;2024-02-21T06:01:31;7.50;99.90
7936;DHT22;4013;49.744;8.118;2024-02-21T06:03:57;7.50;99.90
7936;DHT22;4013;49.744;8.118;2024-02-21T06:06:25;7.50;99.90
7936;DHT22;4013;49.744;8.118;2024-02-21T06:08:52;7.50;99.90
7936;DHT22;4013;49.744;8.118;2024-02-21T06:11:19;7.60;99.90
7936;DHT22;4013;49.744;8.118;2024-02-21T06:13:46;7.60;99.90
7936;DHT22;4013;49.744;8.118;2024-02-21T06:16:13;7.50;99.90
7936;DHT22;4013;49.744;8.118;2024-02-21T06:18:40;7.50;99.90
7936;DHT22;4013;49.744;8.118;2024-02-21T06:21:07;7.50;99.90
7936;DHT22;4013;49.744;8.118;2024-02-21T06:23:38;7.60;99.90
7936;DHT22;4013;49.744;8.118;2024-02-21T06:26:05;7.60;99.90
7936;DHT22;4013;49.744;8.118;2024-02-21T06:28:32;7.70;99.90
7936;DHT22;4013;49.744;8.118;2024-02-21T06:30:59;7.70;99.90
7936;DHT22;4013;49.744;8.118;2024-02-21T06:33:26;7.70;99.90
7936;DHT22;4013;49.744;8.118;2024-02-21T06:35:53;7.70;99.90
7936;DHT22;4013;49.744;8.118;2024-02-21T06:38:19;7.70;99.90
7936;DHT22;4013;49.744;8.118;2024-02-21T06:40:48;7.70;99.90
7936;DHT22;4013;49.744;8.118;2024-02-21T06:43:18;7.70;99.90
7936;DHT22;4013;49.744;8.118;2024-02-21T06:45:46;7.60;99.90
7936;DHT22;4013;49.744;8.118;2024-02-21T06:48:16;7.60;99.90
7936;DHT22;4013;49.744;8.118;2024-02-21T06:50:43;7.60;99.90
7936;DHT22;4013;49.744;8.118;2024-02-21T06:53:10;7.50;99.90
7936;DHT22;4013;49.744;8.118;2024-02-21T06:55:37;7.50;99.90
7936;DHT22;4013;49.744;8.118;2024-02-21T06:58:06;7.50;99.90
7936;DHT22;4013;49.744;8.118;2024-02-21T07:00:38;7.60;99.90
7936;DHT22;4013;49.744;8.118;2024-02-21T07:03:05;7.50;99.90
7936;DHT22;4013;49.744;8.118;2024-02-21T07:05:32;7.50;99.90
7936;DHT22;4013;49.744;8.118;2024-02-21T07:07:58;7.50;99.90
7936;DHT22;4013;49.744;8.118;2024-02-21T07:10:27;7.50;99.90
7936;DHT22;4013;49.744;8.118;2024-02-21T07:12:54;7.60;99.90
7936;DHT22;4013;49.744;8.118;2024-02-21T07:15:23;7.60;99.90
7936;DHT22;4013;49.744;8.118;2024-02-21T07:17:52;7.50;99.90
7936;DHT22;4013;49.744;8.118;2024-02-21T07:20:20;7.60;99.90
7936;DHT22;4013;49.744;8.118;2024-02-21T07:22:46;7.50;99.90
7936;DHT22;4013;49.744;8.118;2024-02-21T07:25:13;7.50;99.90
7936;DHT22;4013;49.744;8.118;2024-02-21T07:27:40;7.60;99.90
7936;DHT22;4013;49.744;8.118;2024-02-21T07:30:08;7.60;99.90
7936;DHT22;4013;49.744;8.118;2024-02-21T07:32:37;7.60;99.90
7936;DHT22;4013;49.744;8.118;2024-02-21T07:35:04;7.70;99.90
7936;DHT22;4013;49.744;8.118;2024-02-21T07:37:36;7.70;99.90
7936;DHT22;4013;49.744;8.118;2024-02-21T07:40:04;7.80;99.90
7936;DHT22;4013;49.744;8.118;2024-02-21T07:42:32;7.80;99.90
7936;DHT22;4013;49.744;8.118;2024-02-21T07:44:59;8.00;99.90
7936;DHT22;4013;49.744;8.118;2024-02-21T07:47:26;8.00;99.90
7936;DHT22;4013;49.744;8.118;2024-02-21T07:49:54;8.00;99.90
7936;DHT22;4013;49.744;8.118;2024-02-21T07:52:20;8.00;99.90
7936;DHT22;4013;49.744;8.118;2024-02-21T07:54:47;8.00;99.90
7936;DHT22;4013;49.744;8.118;2024-02-21T07:57:16;8.10;99.90
7936;DHT22;4013;49.744;8.118;2024-02-21T07:59:43;8.00;99.90
7936;DHT22;4013;49.744;8.118;2024-02-21T08:02:13;8.10;99.90
7936;DHT22;4013;49.744;8.118;2024-02-21T08:04:40;8.10;99.90
7936;DHT22;4013;49.744;8.118;2024-02-21T08:07:09;8.20;99.90
7936;DHT22;4013;49.744;8.118;2024-02-21T08:09:36;8.20;99.90
7936;DHT22;4013;49.744;8.118;2024-02-21T08:12:04;8.20;99.90
7936;DHT22;4013;49.744;8.118;2024-02-21T08:14:32;8.10;99.90
7936;DHT22;4013;49.744;8.118;2024-02-21T08:16:59;8.20;99.90
7936;DHT22;4013;49.744;8.118;2024-02-21T08:19:26;8.20;99.90
7936;DHT22;4013;49.744;8.118;2024-02-21T08:21:53;8.30;99.90
7936;DHT22;4013;49.744;8.118;2024-02-21T08:24:22;8.30;99.90
7936;DHT22;4013;49.744;8.118;2024-02-21T08:26:49;8.30;99.90
7936;DHT22;4013;49.744;8.118;2024-02-21T08:29:16;8.40;99.90
7936;DHT22;4013;49.744;8.118;2024-02-21T08:31:43;8.40;99.90
7936;DHT22;4013;49.744;8.118;2024-02-21T08:34:10;8.40;99.90
7936;DHT22;4013;49.744;8.118;2024-02-21T08:36:38;8.40;99.90
7936;DHT22;4013;49.744;8.118;2024-02-21T08:39:05;8.40;99.90
7936;DHT22;4013;49.744;8.118;2024-02-21T08:41:34;8.50;99.90
7936;DHT22;4013;49.744;8.118;2024-02-21T08:44:04;8.50;99.90
7936;DHT22;4013;49.744;8.118;2024-02-21T08:46:31;8.50;99.90
7936;DHT22;4013;49.744;8.118;2024-02-21T08:48:58;8.60;99.90
7936;DHT22;4013;49.744;8.118;2024-02-21T08:51:25;8.60;99.90
7936;DHT22;4013;49.744;8.118;2024-02-21T08:53:52;8.70;99.90
7936;DHT22;4013;49.744;8.118;2024-02-21T08:56:19;8.70;99.90
7936;DHT22;4013;49.744;8.118;2024-02-21T08:58:47;8.80;99.90
7936;DHT22;4013;49.744;8.118;2024-02-21T09:01:14;8.80;99.90
7936;DHT22;4013;49.744;8.118;2024-02-21T09:03:42;8.90;99.90
7936;DHT22;4013;49.744;8.118;2024-02-21T09:06:12;9.10;99.90
7936;DHT22;4013;49.744;8.118;2024-02-21T09:08:39;9.10;99.90
7936;DHT22;4013;49.744;8.118;2024-02-21T09:11:07;9.10;99.90
7936;DHT22;4013;49.744;8.118;2024-02-21T09:13:34;9.00;99.90
7936;DHT22;4013;49.744;8.118;2024-02-21T09:16:03;9.10;99.90
7936;DHT22;4013;49.744;8.118;2024-02-21T09:18:30;9.10;99.90
7936;DHT22;4013;49.744;8.118;2024-02-21T09:20:56;9.20;99.90
7936;DHT22;4013;49.744;8.118;2024-02-21T09:23:24;9.30;99.90
7936;DHT22;4013;49.744;8.118;2024-02-21T09:25:51;9.30;99.90
7936;DHT22;4013;49.744;8.118;2024-02-21T09:28:18;9.40;99.90
7936;DHT22;4013;49.744;8.118;2024-02-21T09:30:45;9.40;99.90
7936;DHT22;4013;49.744;8.118;2024-02-21T09:33:13;9.40;99.90
7936;DHT22;4013;49.744;8.118;2024-02-21T09:35:41;9.40;99.90
7936;DHT22;4013;49.744;8.118;2024-02-21T09:38:08;9.40;99.90
7936;DHT22;4013;49.744;8.118;2024-02-21T09:40:35;9.50;99.90
7936;DHT22;4013;49.744;8.118;2024-02-21T09:43:05;9.50;99.90
7936;DHT22;4013;49.744;8.118;2024-02-21T09:45:33;9.50;99.90
7936;DHT22;4013;49.744;8.118;2024-02-21T09:48:15;9.50;99.90
7936;DHT22;4013;49.744;8.118;2024-02-21T09:50:47;9.50;99.90
7936;DHT22;4013;49.744;8.118;2024-02-21T09:53:16;9.50;99.90
7936;DHT22;4013;49.744;8.118;2024-02-21T09:55:43;9.50;99.90
7936;DHT22;4013;49.744;8.118;2024-02-21T09:58:11;9.60;99.90
7936;DHT22;4013;49.744;8.118;2024-02-21T10:00:39;9.60;99.90
7936;DHT22;4013;49.744;8.118;2024-02-21T10:03:06;9.70;99.90
7936;DHT22;4013;49.744;8.118;2024-02-21T10:05:37;9.60;99.90
7936;DHT22;4013;49.744;8.118;2024-02-21T10:08:05;9.60;99.90
7936;DHT22;4013;49.744;8.118;2024-02-21T10:10:41;9.70;99.90
7936;DHT22;4013;49.744;8.118;2024-02-21T10:13:09;9.70;99.90
7936;DHT22;4013;49.744;8.118;2024-02-21T10:15:36;9.70;99.90
7936;DHT22;4013;49.744;8.118;2024-02-21T10:18:04;9.80;99.90
7936;DHT22;4013;49.744;8.118;2024-02-21T10:20:32;9.80;99.90
7936;DHT22;4013;49.744;8.118;2024-02-21T10:23:05;9.80;99.90
7936;DHT22;4013;49.744;8.118;2024-02-21T10:25:35;9.90;99.90
7936;DHT22;4013;49.744;8.118;2024-02-21T10:28:04;9.90;99.90
7936;DHT22;4013;49.744;8.118;2024-02-21T10:30:31;10.00;99.90
7936;DHT22;4013;49.744;8.118;2024-02-21T10:32:58;10.00;99.90
7936;DHT22;4013;49.744;8.118;2024-02-21T10:35:29;10.00;99.90
7936;DHT22;4013;49.744;8.118;2024-02-21T10:37:56;10.00;99.90
7936;DHT22;4013;49.744;8.118;2024-02-21T10:40:25;10.00;99.90
7936;DHT22;4013;49.744;8.118;2024-02-21T10:42:56;10.10;99.90
7936;DHT22;4013;49.744;8.118;2024-02-21T10:45:29;10.20;99.90
7936;DHT22;4013;49.744;8.118;2024-02-21T10:48:07;10.20;99.90
7936;DHT22;4013;49.744;8.118;2024-02-21T10:50:40;10.20;99.90
7936;DHT22;4013;49.744;8.118;2024-02-21T10:53:18;10.20;99.90
7936;DHT22;4013;49.744;8.118;2024-02-21T10:58:42;10.20;99.90
7936;DHT22;4013;49.744;8.118;2024-02-21T11:01:09;10.20;99.90
7936;DHT22;4013;49.744;8.118;2024-02-21T11:03:39;10.20;99.90
7936;DHT22;4013;49.744;8.118;2024-02-21T11:06:06;10.20;99.90
7936;DHT22;4013;49.744;8.118;2024-02-21T11:08:34;10.20;99.90
7936;DHT22;4013;49.744;8.118;2024-02-21T11:11:05;10.30;99.90
7936;DHT22;4013;49.744;8.118;2024-02-21T11:13:31;10.20;99.90
7936;DHT22;4013;49.744;8.118;2024-02-21T11:16:07;10.20;99.90
7936;DHT22;4013;49.744;8.118;2024-02-21T11:18:34;10.30;99.90
7936;DHT22;4013;49.744;8.118;2024-02-21T11:21:01;10.20;99.90
7936;DHT22;4013;49.744;8.118;2024-02-21T11:23:30;10.20;99.90
7936;DHT22;4013;49.744;8.118;2024-02-21T11:26:08;10.20;99.90
7936;DHT22;4013;49.744;8.118;2024-02-21T11:28:35;10.20;99.90
7936;DHT22;4013;49.744;8.118;2024-02-21T11:31:11;10.20;99.90
7936;DHT22;4013;49.744;8.118;2024-02-21T11:33:40;10.20;99.90
7936;DHT22;4013;49.744;8.118;2024-02-21T11:36:08;10.10;99.90
7936;DHT22;4013;49.744;8.118;2024-02-21T11:38:36;10.00;99.90
7936;DHT22;4013;49.744;8.118;2024-02-21T11:41:10;10.00;99.90
7936;DHT22;4013;49.744;8.118;2024-02-21T11:43:37;10.00;99.90
7936;DHT22;4013;49.744;8.118;2024-02-21T11:46:07;10.00;99.90
7936;DHT22;4013;49.744;8.118;2024-02-21T11:48:35;10.10;99.90
7936;DHT22;4013;49.744;8.118;2024-02-21T11:51:02;10.10;99.90
7936;DHT22;4013;49.744;8.118;2024-02-21T11:53:29;10.20;99.90
7936;DHT22;4013;49.744;8.118;2024-02-21T11:55:56;10.20;99.90
7936;DHT22;4013;49.744;8.118;2024-02-21T11:58:24;10.30;99.90
7936;DHT22;4013;49.744;8.118;2024-02-21T12:00:52;10.30;99.90
7936;DHT22;4013;49.744;8.118;2024-02-21T12:03:19;10.40;99.90
7936;DHT22;4013;49.744;8.118;2024-02-21T12:05:46;10.40;99.90
7936;DHT22;4013;49.744;8.118;2024-02-21T12:08:16;10.50;99.90
7936;DHT22;4013;49.744;8.118;2024-02-21T12:10:43;10.50;99.90
7936;DHT22;4013;49.744;8.118;2024-02-21T12:13:16;10.50;99.90
7936;DHT22;4013;49.744;8.118;2024-02-21T12:15:47;10.50;99.90
7936;DHT22;4013;49.744;8.118;2024-02-21T12:18:15;10.50;99.90
7936;DHT22;4013;49.744;8.118;2024-02-21T12:20:42;10.60;99.90
7936;DHT22;4013;49.744;8.118;2024-02-21T12:23:11;10.60;99.90
7936;DHT22;4013;49.744;8.118;2024-02-21T12:25:39;10.70;99.90
7936;DHT22;4013;49.744;8.118;2024-02-21T12:28:06;10.60;99.90
7936;DHT22;4013;49.744;8.118;2024-02-21T12:30:33;10.60;99.90
7936;DHT22;4013;49.744;8.118;2024-02-21T12:33:05;10.60;99.90
7936;DHT22;4013;49.744;8.118;2024-02-21T12:35:32;10.60;99.90
7936;DHT22;4013;49.744;8.118;2024-02-21T12:37:59;10.60;99.90
7936;DHT22;4013;49.744;8.118;2024-02-21T12:40:27;10.60;99.90
7936;DHT22;4013;49.744;8.118;2024-02-21T12:42:58;10.60;99.90
7936;DHT22;4013;49.744;8.118;2024-02-21T12:45:25;10.70;99.90
7936;DHT22;4013;49.744;8.118;2024-02-21T12:47:52;10.70;99.90
7936;DHT22;4013;49.744;8.118;2024-02-21T12:50:20;10.60;99.90
7936;DHT22;4013;49.744;8.118;2024-02-21T12:52:48;10.70;99.90
7936;DHT22;4013;49.744;8.118;2024-02-21T12:55:16;10.70;99.90
7936;DHT22;4013;49.744;8.118;2024-02-21T12:57:43;10.70;99.90
7936;DHT22;4013;49.744;8.118;2024-02-21T13:00:10;10.70;99.90
7936;DHT22;4013;49.744;8.118;2024-02-21T13:02:38;10.70;99.90
7936;DHT22;4013;49.744;8.118;2024-02-21T13:05:05;10.70;99.90
7936;DHT22;4013;49.744;8.118;2024-02-21T13:07:34;10.70;99.90
7936;DHT22;4013;49.744;8.118;2024-02-21T13:10:01;10.80;99.90
7936;DHT22;4013;49.744;8.118;2024-02-21T13:12:29;10.80;99.90
7936;DHT22;4013;49.744;8.118;2024-02-21T13:14:56;10.80;99.90
7936;DHT22;4013;49.744;8.118;2024-02-21T13:17:23;10.80;99.90
7936;DHT22;4013;49.744;8.118;2024-02-21T13:19:55;10.80;99.90
7936;DHT22;4013;49.744;8.118;2024-02-21T13:22:22;10.90;99.90
7936;DHT22;4013;49.744;8.118;2024-02-21T13:24:52;10.90;99.90
7936;DHT22;4013;49.744;8.118;2024-02-21T13:27:19;10.80;99.90
7936;DHT22;4013;49.744;8.118;2024-02-21T13:29:46;10.80;99.90
7936;DHT22;4013;49.744;8.118;2024-02-21T13:32:13;10.90;99.90
7936;DHT22;4013;49.744;8.118;2024-02-21T13:34:41;10.90;99.90
7936;DHT22;4013;49.744;8.118;2024-02-21T13:37:08;10.90;99.90
7936;DHT22;4013;49.744;8.118;2024-02-21T13:39:37;11.00;99.90
7936;DHT22;4013;49.744;8.118;2024-02-21T13:42:06;10.90;99.90
7936;DHT22;4013;49.744;8.118;2024-02-21T13:44:33;11.00;99.90
7936;DHT22;4013;49.744;8.118;2024-02-21T13:47:00;11.00;99.90
7936;DHT22;4013;49.744;8.118;2024-02-21T13:49:27;10.90;99.90
7936;DHT22;4013;49.744;8.118;2024-02-21T13:51:55;10.80;99.90
7936;DHT22;4013;49.744;8.118;2024-02-21T13:54:23;10.80;99.90
7936;DHT22;4013;49.744;8.118;2024-02-21T13:56:50;10.80;99.90
7936;DHT22;4013;49.744;8.118;2024-02-21T13:59:18;10.90;99.90
7936;DHT22;4013;49.744;8.118;2024-02-21T14:01:46;10.90;99.90
7936;DHT22;4013;49.744;8.118;2024-02-21T14:04:13;11.00;99.90
7936;DHT22;4013;49.744;8.118;2024-02-21T14:06:40;10.90;99.90
7936;DHT22;4013;49.744;8.118;2024-02-21T14:09:08;10.90;99.90
7936;DHT22;4013;49.744;8.118;2024-02-21T14:11:36;10.90;99.90
7936;DHT22;4013;49.744;8.118;2024-02-21T14:14:05;10.90;99.90
7936;DHT22;4013;49.744;8.118;2024-02-21T14:16:33;10.90;99.90
7936;DHT22;4013;49.744;8.118;2024-02-21T14:19:01;10.90;99.90
7936;DHT22;4013;49.744;8.118;2024-02-21T14:21:28;10.90;99.90
7936;DHT22;4013;49.744;8.118;2024-02-21T14:23:55;10.90;99.90
7936;DHT22;4013;49.744;8.118;2024-02-21T14:26:23;11.00;99.90
7936;DHT22;4013;49.744;8.118;2024-02-21T14:28:50;11.00;99.90
7936;DHT22;4013;49.744;8.118;2024-02-21T14:31:17;11.00;99.90
7936;DHT22;4013;49.744;8.118;2024-02-21T14:33:45;11.10;99.90
7936;DHT22;4013;49.744;8.118;2024-02-21T14:36:12;11.10;99.90
7936;DHT22;4013;49.744;8.118;2024-02-21T14:38:41;11.10;99.90
7936;DHT22;4013;49.744;8.118;2024-02-21T14:41:07;11.20;99.90
7936;DHT22;4013;49.744;8.118;2024-02-21T14:43:35;11.20;99.90
7936;DHT22;4013;49.744;8.118;2024-02-21T14:46:02;11.10;99.90
7936;DHT22;4013;49.744;8.118;2024-02-21T14:48:29;11.10;99.90
7936;DHT22;4013;49.744;8.118;2024-02-21T14:50:58;11.10;99.90
7936;DHT22;4013;49.744;8.118;2024-02-21T14:53:25;11.10;99.90
7936;DHT22;4013;49.744;8.118;2024-02-21T14:55:52;11.10;99.90
7936;DHT22;4013;49.744;8.118;2024-02-21T14:58:19;11.00;99.90
7936;DHT22;4013;49.744;8.118;2024-02-21T15:00:46;11.00;99.90
7936;DHT22;4013;49.744;8.118;2024-02-21T15:03:15;11.00;99.90
7936;DHT22;4013;49.744;8.118;2024-02-21T15:05:45;11.00;99.90
7936;DHT22;4013;49.744;8.118;2024-02-21T15:08:13;11.00;99.90
7936;DHT22;4013;49.744;8.118;2024-02-21T15:10:42;11.00;99.90
7936;DHT22;4013;49.744;8.118;2024-02-21T15:13:09;11.00;99.90
7936;DHT22;4013;49.744;8.118;2024-02-21T15:15:36;11.00;99.90
7936;DHT22;4013;49.744;8.118;2024-02-21T15:18:05;11.00;99.90
7936;DHT22;4013;49.744;8.118;2024-02-21T15:20:32;10.90;99.90
7936;DHT22;4013;49.744;8.118;2024-02-21T15:22:58;10.90;99.90
7936;DHT22;4013;49.744;8.118;2024-02-21T15:25:27;10.90;99.90
7936;DHT22;4013;49.744;8.118;2024-02-21T15:27:55;10.90;99.90
7936;DHT22;4013;49.744;8.118;2024-02-21T15:30:23;10.90;99.90
7936;DHT22;4013;49.744;8.118;2024-02-21T15:32:50;10.90;99.90
7936;DHT22;4013;49.744;8.118;2024-02-21T15:35:17;10.90;99.90
7936;DHT22;4013;49.744;8.118;2024-02-21T15:37:44;10.90;99.90
7936;DHT22;4013;49.744;8.118;2024-02-21T15:40:11;10.80;99.90
7936;DHT22;4013;49.744;8.118;2024-02-21T15:42:39;10.80;99.90
7936;DHT22;4013;49.744;8.118;2024-02-21T15:45:07;10.80;99.90
7936;DHT22;4013;49.744;8.118;2024-02-21T15:47:34;10.80;99.90
7936;DHT22;4013;49.744;8.118;2024-02-21T15:50:01;10.80;99.90
7936;DHT22;4013;49.744;8.118;2024-02-21T15:52:28;10.70;99.90
7936;DHT22;4013;49.744;8.118;2024-02-21T15:54:55;10.60;99.90
7936;DHT22;4013;49.744;8.118;2024-02-21T15:57:22;10.50;99.90
7936;DHT22;4013;49.744;8.118;2024-02-21T15:59:51;10.40;99.90
7936;DHT22;4013;49.744;8.118;2024-02-21T16:02:19;10.40;99.90
7936;DHT22;4013;49.744;8.118;2024-02-21T16:04:46;10.30;99.90
7936;DHT22;4013;49.744;8.118;2024-02-21T16:07:13;10.30;99.90
7936;DHT22;4013;49.744;8.118;2024-02-21T16:09:40;10.30;99.90
7936;DHT22;4013;49.744;8.118;2024-02-21T16:12:09;10.30;99.90
7936;DHT22;4013;49.744;8.118;2024-02-21T16:14:36;10.30;99.90
7936;DHT22;4013;49.744;8.118;2024-02-21T16:17:05;10.20;99.90
7936;DHT22;4013;49.744;8.118;2024-02-21T16:19:32;10.20;99.90
7936;DHT22;4013;49.744;8.118;2024-02-21T16:21:59;10.20;99.90
7936;DHT22;4013;49.744;8.118;2024-02-21T16:24:30;10.20;99.90
7936;DHT22;4013;49.744;8.118;2024-02-21T16:26:57;10.10;99.90
7936;DHT22;4013;49.744;8.118;2024-02-21T16:29:23;10.00;99.90
7936;DHT22;4013;49.744;8.118;2024-02-21T16:31:51;10.00;99.90
7936;DHT22;4013;49.744;8.118;2024-02-21T16:34:19;9.90;99.90
7936;DHT22;4013;49.744;8.118;2024-02-21T16:36:47;9.90;99.90
7936;DHT22;4013;49.744;8.118;2024-02-21T16:39:14;9.90;99.90
7936;DHT22;4013;49.744;8.118;2024-02-21T16:41:41;10.00;99.90
7936;DHT22;4013;49.744;8.118;2024-02-21T16:44:08;9.80;99.90
7936;DHT22;4013;49.744;8.118;2024-02-21T16:46:35;9.80;99.90
7936;DHT22;4013;49.744;8.118;2024-02-21T16:49:02;9.80;99.90
7936;DHT22;4013;49.744;8.118;2024-02-21T16:51:31;9.80;99.90
7936;DHT22;4013;49.744;8.118;2024-02-21T16:53:58;9.80;99.90
7936;DHT22;4013;49.744;8.118;2024-02-21T16:56:25;9.70;99.90
7936;DHT22;4013;49.744;8.118;2024-02-21T16:58:52;9.70;99.90
7936;DHT22;4013;49.744;8.118;2024-02-21T17:01:20;9.60;99.90
7936;DHT22;4013;49.744;8.118;2024-02-21T17:03:48;9.60;99.90
7936;DHT22;4013;49.744;8.118;2024-02-21T17:06:15;9.60;99.90
7936;DHT22;4013;49.744;8.118;2024-02-21T17:08:43;9.50;99.90
7936;DHT22;4013;49.744;8.118;2024-02-21T17:11:10;9.50;99.90
7936;DHT22;4013;49.744;8.118;2024-02-21T17:13:37;9.40;99.90
7936;DHT22;4013;49.744;8.118;2024-02-21T17:16:04;9.40;99.90
7936;DHT22;4013;49.744;8.118;2024-02-21T17:18:32;9.40;99.90
7936;DHT22;4013;49.744;8.118;2024-02-21T17:21:01;9.50;99.90
7936;DHT22;4013;49.744;8.118;2024-02-21T17:23:28;9.50;99.90
7936;DHT22;4013;49.744;8.118;2024-02-21T17:25:58;9.40;99.90
7936;DHT22;4013;49.744;8.118;2024-02-21T17:28:25;9.40;99.90
7936;DHT22;4013;49.744;8.118;2024-02-21T17:30:53;9.40;99.90
7936;DHT22;4013;49.744;8.118;2024-02-21T17:33:20;9.40;99.90
7936;DHT22;4013;49.744;8.118;2024-02-21T17:35:47;9.40;99.90
7936;DHT22;4013;49.744;8.118;2024-02-21T17:38:15;9.40;99.90
7936;DHT22;4013;49.744;8.118;2024-02-21T17:40:44;9.30;99.90
7936;DHT22;4013;49.744;8.118;2024-02-21T17:43:13;9.30;99.90
7936;DHT22;4013;49.744;8.118;2024-02-21T17:45:39;9.30;99.90
7936;DHT22;4013;49.744;8.118;2024-02-21T17:48:07;9.30;99.90
7936;DHT22;4013;49.744;8.118;2024-02-21T17:50:34;9.20;99.90
7936;DHT22;4013;49.744;8.118;2024-02-21T17:53:01;9.30;99.90
7936;DHT22;4013;49.744;8.118;2024-02-21T17:55:29;9.30;99.90
7936;DHT22;4013;49.744;8.118;2024-02-21T17:57:56;9.20;99.90
7936;DHT22;4013;49.744;8.118;2024-02-21T18:00:25;9.20;99.90
7936;DHT22;4013;49.744;8.118;2024-02-21T18:02:55;9.20;99.90
7936;DHT22;4013;49.744;8.118;2024-02-21T18:05:22;9.10;99.90
7936;DHT22;4013;49.744;8.118;2024-02-21T18:07:49;9.10;99.90
7936;DHT22;4013;49.744;8.118;2024-02-21T18:10:16;9.10;99.90
7936;DHT22;4013;49.744;8.118;2024-02-21T18:12:43;9.10;99.90
7936;DHT22;4013;49.744;8.118;2024-02-21T18:15:11;9.10;99.90
7936;DHT22;4013;49.744;8.118;2024-02-21T18:17:40;9.20;99.90
7936;DHT22;4013;49.744;8.118;2024-02-21T18:20:08;9.30;99.90
7936;DHT22;4013;49.744;8.118;2024-02-21T18:22:35;9.40;99.90
7936;DHT22;4013;49.744;8.118;2024-02-21T18:25:02;9.50;99.90
7936;DHT22;4013;49.744;8.118;2024-02-21T18:27:30;9.60;99.90
7936;DHT22;4013;49.744;8.118;2024-02-21T18:29:58;9.70;99.90
7936;DHT22;4013;49.744;8.118;2024-02-21T18:32:25;9.70;99.90
7936;DHT22;4013;49.744;8.118;2024-02-21T18:34:54;9.80;99.90
7936;DHT22;4013;49.744;8.118;2024-02-21T18:37:21;9.80;99.90
7936;DHT22;4013;49.744;8.118;2024-02-21T18:39:49;9.80;99.90
7936;DHT22;4013;49.744;8.118;2024-02-21T18:42:16;9.80;99.90
7936;DHT22;4013;49.744;8.118;2024-02-21T18:44:44;9.80;99.90
7936;DHT22;4013;49.744;8.118;2024-02-21T18:47:11;9.80;99.90
7936;DHT22;4013;49.744;8.118;2024-02-21T18:49:39;9.80;99.90
7936;DHT22;4013;49.744;8.118;2024-02-21T18:52:10;9.80;99.90
7936;DHT22;4013;49.744;8.118;2024-02-21T18:54:39;9.80;99.90
7936;DHT22;4013;49.744;8.118;2024-02-21T18:57:07;9.80;99.90
7936;DHT22;4013;49.744;8.118;2024-02-21T18:59:34;9.80;99.90
7936;DHT22;4013;49.744;8.118;2024-02-21T19:02:01;9.80;99.90
7936;DHT22;4013;49.744;8.118;2024-02-21T19:04:28;9.80;99.90
7936;DHT22;4013;49.744;8.118;2024-02-21T19:06:54;9.80;99.90
7936;DHT22;4013;49.744;8.118;2024-02-21T19:09:23;9.80;99.90
7936;DHT22;4013;49.744;8.118;2024-02-21T19:11:50;9.80;99.90
7936;DHT22;4013;49.744;8.118;2024-02-21T19:14:17;9.80;99.90
7936;DHT22;4013;49.744;8.118;2024-02-21T19:16:44;9.80;99.90
7936;DHT22;4013;49.744;8.118;2024-02-21T19:19:11;9.80;99.90
7936;DHT22;4013;49.744;8.118;2024-02-21T19:21:38;9.80;99.90
7936;DHT22;4013;49.744;8.118;2024-02-21T19:24:05;9.80;99.90
7936;DHT22;4013;49.744;8.118;2024-02-21T19:26:34;9.80;99.90
7936;DHT22;4013;49.744;8.118;2024-02-21T19:29:01;9.80;99.90
7936;DHT22;4013;49.744;8.118;2024-02-21T19:31:28;9.80;99.90
7936;DHT22;4013;49.744;8.118;2024-02-21T19:33:55;9.80;99.90
7936;DHT22;4013;49.744;8.118;2024-02-21T19:36:22;9.80;99.90
7936;DHT22;4013;49.744;8.118;2024-02-21T19:38:49;9.90;99.90
7936;DHT22;4013;49.744;8.118;2024-02-21T19:41:16;9.90;99.90
7936;DHT22;4013;49.744;8.118;2024-02-21T19:43:45;10.00;99.90
7936;DHT22;4013;49.744;8.118;2024-02-21T19:46:12;10.00;99.90
7936;DHT22;4013;49.744;8.118;2024-02-21T19:48:39;10.00;99.90
7936;DHT22;4013;49.744;8.118;2024-02-21T19:51:06;10.10;99.90
7936;DHT22;4013;49.744;8.118;2024-02-21T19:53:33;10.10;99.90
7936;DHT22;4013;49.744;8.118;2024-02-21T19:56:00;10.10;99.90
7936;DHT22;4013;49.744;8.118;2024-02-21T19:58:27;10.10;99.90
7936;DHT22;4013;49.744;8.118;2024-02-21T20:00:57;10.10;99.90
7936;DHT22;4013;49.744;8.118;2024-02-21T20:03:25;10.20;99.90
7936;DHT22;4013;49.744;8.118;2024-02-21T20:05:52;10.00;99.90
7936;DHT22;4013;49.744;8.118;2024-02-21T20:08:19;10.00;99.90
7936;DHT22;4013;49.744;8.118;2024-02-21T20:10:47;10.00;99.90
7936;DHT22;4013;49.744;8.118;2024-02-21T20:13:14;9.90;99.90
7936;DHT22;4013;49.744;8.118;2024-02-21T20:15:41;9.90;99.90
7936;DHT22;4013;49.744;8.118;2024-02-21T20:18:10;9.90;99.90
7936;DHT22;4013;49.744;8.118;2024-02-21T20:20:38;9.90;99.90
7936;DHT22;4013;49.744;8.118;2024-02-21T20:23:06;9.80;99.90
7936;DHT22;4013;49.744;8.118;2024-02-21T20:25:38;9.70;99.90
7936;DHT22;4013;49.744;8.118;2024-02-21T20:28:05;9.70;99.90
7936;DHT22;4013;49.744;8.118;2024-02-21T20:30:32;9.70;99.90
7936;DHT22;4013;49.744;8.118;2024-02-21T20:33:03;9.60;99.90
7936;DHT22;4013;49.744;8.118;2024-02-21T20:35:33;9.60;99.90
7936;DHT22;4013;49.744;8.118;2024-02-21T20:38:00;9.50;99.90
7936;DHT22;4013;49.744;8.118;2024-02-21T20:40:28;9.40;99.90
7936;DHT22;4013;49.744;8.118;2024-02-21T20:42:55;9.40;99.90
7936;DHT22;4013;49.744;8.118;2024-02-21T20:45:24;9.30;99.90
7936;DHT22;4013;49.744;8.118;2024-02-21T20:47:51;9.30;99.90
7936;DHT22;4013;49.744;8.118;2024-02-21T20:50:18;9.20;99.90
7936;DHT22;4013;49.744;8.118;2024-02-21T20:52:49;9.20;99.90
7936;DHT22;4013;49.744;8.118;2024-02-21T20:55:16;9.20;99.90
7936;DHT22;4013;49.744;8.118;2024-02-21T20:57:49;9.10;99.90
7936;DHT22;4013;49.744;8.118;2024-02-21T21:00:17;9.10;99.90
7936;DHT22;4013;49.744;8.118;2024-02-21T21:02:47;9.00;99.90
7936;DHT22;4013;49.744;8.118;2024-02-21T21:05:14;9.00;99.90
7936;DHT22;4013;49.744;8.118;2024-02-21T21:07:42;8.90;99.90
7936;DHT22;4013;49.744;8.118;2024-02-21T21:10:11;8.90;99.90
7936;DHT22;4013;49.744;8.118;2024-02-21T21:12:38;8.90;99.90
7936;DHT22;4013;49.744;8.118;2024-02-21T21:15:07;8.90;99.90
7936;DHT22;4013;49.744;8.118;2024-02-21T21:17:34;8.80;99.90
7936;DHT22;4013;49.744;8.118;2024-02-21T21:20:01;8.90;99.90
7936;DHT22;4013;49.744;8.118;2024-02-21T21:22:30;8.80;99.90
7936;DHT22;4013;49.744;8.118;2024-02-21T21:24:57;8.70;99.90
7936;DHT22;4013;49.744;8.118;2024-02-21T21:27:27;8.70;99.90
7936;DHT22;4013;49.744;8.118;2024-02-21T21:29:54;8.70;99.90
7936;DHT22;4013;49.744;8.118;2024-02-21T21:32:21;8.70;99.90
7936;DHT22;4013;49.744;8.118;2024-02-21T21:34:48;8.70;99.90
7936;DHT22;4013;49.744;8.118;2024-02-21T21:37:14;8.60;99.90
7936;DHT22;4013;49.744;8.118;2024-02-21T21:39:41;8.60;99.90
7936;DHT22;4013;49.744;8.118;2024-02-21T21:42:13;8.50;99.90
7936;DHT22;4013;49.744;8.118;2024-02-21T21:44:41;8.50;99.90
7936;DHT22;4013;49.744;8.118;2024-02-21T21:47:08;8.50;99.90
7936;DHT22;4013;49.744;8.118;2024-02-21T21:49:35;8.50;99.90